createdAt,value
2019-03-04T00:02:14.731Z,7.93
2019-03-04T00:04:44.739Z,10.43
2019-03-04T00:07:24.360Z,8.60
2019-03-04T00:09:55.228Z,8.60
2019-03-04T00:12:25.509Z,9.47
2019-03-04T00:15:01.070Z,8.63
2019-03-04T00:17:33.330Z,8.80
2019-03-04T00:20:06.257Z,9.57
2019-03-04T00:22:38.187Z,7.13
2019-03-04T00:25:11.024Z,7.13
2019-03-04T00:27:43.912Z,7.77
2019-03-04T00:30:15.583Z,7.23
2019-03-04T00:33:02.517Z,8.80
2019-03-04T00:35:44.126Z,7.40
2019-03-04T00:38:15.487Z,7.00
2019-03-04T00:40:45.926Z,6.43
2019-03-04T00:43:27.573Z,7.47
2019-03-04T00:46:15.210Z,8.87
2019-03-04T00:48:45.202Z,8.27
2019-03-04T00:51:20.592Z,7.43
2019-03-04T00:53:52.437Z,6.73
2019-03-04T00:56:24.952Z,6.23
2019-03-04T00:58:55.731Z,6.50
2019-03-04T01:01:33.369Z,7.20
2019-03-04T01:04:07.858Z,8.27
2019-03-04T01:06:38.084Z,6.17
2019-03-04T01:09:11.001Z,7.00
2019-03-04T01:11:43.380Z,7.07
2019-03-04T01:14:17.776Z,6.50
2019-03-04T01:16:49.097Z,5.70
2019-03-04T01:19:19.973Z,6.00
2019-03-04T01:21:51.727Z,6.47
2019-03-04T01:24:22.568Z,6.47
2019-03-04T01:26:52.258Z,6.03
2019-03-04T01:29:22.289Z,5.27
2019-03-04T01:31:56.619Z,5.63
2019-03-04T01:34:26.044Z,5.60
2019-03-04T01:37:00.311Z,6.33
2019-03-04T01:39:30.031Z,5.50
2019-03-04T01:42:07.543Z,6.03
2019-03-04T01:44:38.693Z,6.43
2019-03-04T01:47:28.134Z,6.30
2019-03-04T01:50:06.586Z,5.87
2019-03-04T01:52:41.097Z,7.43
2019-03-04T01:55:12.059Z,7.00
2019-03-04T01:57:41.578Z,7.60
2019-03-04T02:00:15.685Z,6.37
2019-03-04T02:02:48.967Z,6.00
2019-03-04T02:05:19.542Z,6.27
2019-03-04T02:07:51.075Z,6.40
2019-03-04T02:10:23.444Z,6.50
2019-03-04T02:12:58.144Z,5.07
2019-03-04T02:15:29.748Z,5.33
2019-03-04T02:18:01.099Z,5.97
2019-03-04T02:20:52.148Z,5.67
2019-03-04T02:23:25.731Z,6.73
2019-03-04T02:26:33.254Z,4.57
2019-03-04T02:29:08.500Z,4.73
2019-03-04T02:31:41.507Z,4.53
2019-03-04T02:34:14.558Z,4.20
2019-03-04T02:36:47.280Z,4.90
2019-03-04T02:39:22.753Z,5.20
2019-03-04T02:41:59.594Z,4.30
2019-03-04T02:44:31.432Z,4.87
2019-03-04T02:47:04.767Z,4.73
2019-03-04T02:49:42.912Z,4.37
2019-03-04T02:52:12.441Z,4.67
2019-03-04T02:54:41.905Z,4.03
2019-03-04T02:57:19.443Z,5.43
2019-03-04T02:59:51.739Z,4.53
2019-03-04T03:02:25.062Z,4.10
2019-03-04T03:04:54.231Z,4.47
2019-03-04T03:07:27.560Z,4.33
2019-03-04T03:10:00.409Z,4.30
2019-03-04T03:12:31.310Z,4.57
2019-03-04T03:15:09.899Z,3.90
2019-03-04T03:17:35.121Z,3.90
2019-03-04T03:20:09.767Z,4.70
2019-03-04T03:22:43.101Z,4.10
2019-03-04T03:25:12.744Z,4.10
2019-03-04T03:27:44.317Z,4.10
2019-03-04T03:30:13.651Z,3.80
2019-03-04T03:32:45.521Z,3.73
2019-03-04T03:35:14.645Z,4.90
2019-03-04T03:37:45.071Z,5.07
2019-03-04T03:40:14.963Z,4.33
2019-03-04T03:42:45.490Z,4.50
2019-03-04T03:45:18.789Z,4.40
2019-03-04T03:47:58.810Z,4.53
2019-03-04T03:50:31.301Z,4.30
2019-03-04T03:53:16.616Z,4.53
2019-03-04T03:55:49.424Z,4.43
2019-03-04T03:58:40.294Z,4.07
2019-03-04T04:01:12.536Z,3.43
2019-03-04T04:04:04.404Z,3.57
2019-03-04T04:06:35.860Z,4.47
2019-03-04T04:09:12.429Z,4.17
2019-03-04T04:11:45.523Z,6.70
2019-03-04T04:14:16.372Z,4.43
2019-03-04T04:16:51.713Z,6.37
2019-03-04T04:19:23.565Z,8.43
2019-03-04T04:21:54.801Z,3.77
2019-03-04T04:24:48.451Z,7.27
2019-03-04T04:27:22.274Z,3.60
2019-03-04T04:29:59.370Z,3.57
2019-03-04T04:32:25.985Z,7.30
2019-03-04T04:34:59.670Z,3.57
2019-03-04T04:37:30.820Z,8.03
2019-03-04T04:40:08.409Z,5.37
2019-03-04T04:42:41.980Z,6.03
2019-03-04T04:45:13.618Z,3.77
2019-03-04T04:47:42.949Z,3.97
2019-03-04T04:50:13.473Z,5.87
2019-03-04T04:52:45.882Z,4.70
2019-03-04T04:55:20.709Z,5.70
2019-03-04T04:57:53.017Z,6.13
2019-03-04T05:00:22.595Z,5.93
2019-03-04T05:03:03.622Z,3.90
2019-03-04T05:05:34.935Z,5.27
2019-03-04T05:08:07.097Z,4.33
2019-03-04T05:10:38.530Z,4.30
2019-03-04T05:13:15.682Z,5.80
2019-03-04T05:15:47.341Z,5.60
2019-03-04T05:18:24.500Z,5.73
2019-03-04T05:20:55.418Z,5.03
2019-03-04T05:23:28.407Z,4.57
2019-03-04T05:25:58.791Z,6.40
2019-03-04T05:28:29.641Z,5.30
2019-03-04T05:31:01.562Z,5.30
2019-03-04T05:33:34.529Z,4.93
2019-03-04T05:36:11.233Z,6.87
2019-03-04T05:38:40.906Z,7.10
2019-03-04T05:41:24.048Z,3.53
2019-03-04T05:43:57.837Z,4.50
2019-03-04T05:46:27.061Z,5.60
2019-03-04T05:48:59.095Z,5.77
2019-03-04T05:51:30.446Z,3.37
2019-03-04T05:54:01.529Z,4.47
2019-03-04T05:56:34.034Z,5.87
2019-03-04T05:59:19.389Z,5.27
2019-03-04T06:01:47.022Z,4.87
2019-03-04T06:04:16.553Z,3.67
2019-03-04T06:06:54.570Z,5.27
2019-03-04T06:09:29.264Z,3.60
2019-03-04T06:12:01.907Z,2.90
2019-03-04T06:14:36.348Z,4.10
2019-03-04T06:17:06.481Z,4.67
2019-03-04T06:19:37.376Z,2.83
2019-03-04T06:22:09.823Z,4.70
2019-03-04T06:24:51.322Z,3.57
2019-03-04T06:27:37.915Z,3.10
2019-03-04T06:30:32.151Z,4.60
2019-03-04T06:33:05.361Z,4.70
2019-03-04T06:35:37.173Z,3.00
2019-03-04T06:38:12.600Z,3.73
2019-03-04T06:40:45.726Z,3.33
2019-03-04T06:43:20.446Z,3.80
2019-03-04T06:45:59.884Z,4.20
2019-03-04T06:48:32.084Z,3.83
2019-03-04T06:51:04.394Z,4.00
2019-03-04T06:54:00.870Z,3.10
2019-03-04T06:56:38.125Z,4.70
2019-03-04T06:59:34.184Z,4.53
2019-03-04T07:02:11.936Z,6.20
2019-03-04T07:05:04.662Z,3.37
2019-03-04T07:07:40.641Z,4.97
2019-03-04T07:10:10.730Z,4.17
2019-03-04T07:12:42.081Z,7.63
2019-03-04T07:15:15.356Z,6.57
2019-03-04T07:17:49.238Z,7.03
2019-03-04T07:20:27.513Z,6.07
2019-03-04T07:23:04.844Z,7.43
2019-03-04T07:25:34.827Z,8.50
2019-03-04T07:28:04.295Z,8.47
2019-03-04T07:30:36.951Z,7.27
2019-03-04T07:33:10.417Z,9.57
2019-03-04T07:35:41.236Z,13.63
2019-03-04T07:38:31.400Z,10.03
2019-03-04T07:41:01.397Z,11.30
2019-03-04T07:43:40.945Z,13.60
2019-03-04T07:46:11.373Z,12.17
2019-03-04T07:48:42.119Z,14.07
2019-03-04T07:51:16.548Z,17.23
2019-03-04T07:53:46.983Z,16.53
2019-03-04T07:56:19.629Z,16.10
2019-03-04T07:58:51.278Z,16.10
2019-03-04T08:01:23.738Z,16.70
2019-03-04T08:03:54.883Z,15.50
2019-03-04T08:06:25.994Z,24.50
2019-03-04T08:09:39.262Z,17.90
2019-03-04T08:13:06.020Z,15.97
2019-03-04T08:15:41.160Z,17.03
2019-03-04T08:18:15.669Z,19.97
2019-03-04T08:20:47.657Z,18.60
2019-03-04T08:23:18.317Z,17.40
2019-03-04T08:28:29.878Z,19.07
2019-03-04T08:30:59.129Z,17.37
2019-03-04T08:33:30.423Z,20.00
2019-03-04T08:36:00.827Z,19.47
2019-03-04T08:38:38.994Z,17.50
2019-03-04T08:41:09.183Z,17.17
2019-03-04T08:43:38.017Z,21.83
2019-03-04T08:46:25.009Z,18.40
2019-03-04T08:49:01.321Z,20.03
2019-03-04T08:51:32.471Z,15.43
2019-03-04T08:54:04.049Z,15.00
2019-03-04T08:56:33.185Z,15.70
2019-03-04T08:59:11.973Z,15.83
2019-03-04T09:01:52.276Z,18.40
2019-03-04T09:04:21.311Z,13.70
2019-03-04T09:06:50.292Z,13.53
2019-03-04T09:09:19.198Z,16.13
2019-03-04T09:11:48.896Z,12.77
2019-03-04T09:14:18.213Z,12.50
2019-03-04T09:16:49.733Z,11.77
2019-03-04T09:19:18.838Z,13.77
2019-03-04T09:21:49.202Z,14.30
2019-03-04T09:24:18.960Z,11.60
2019-03-04T09:26:51.237Z,11.40
2019-03-04T09:29:20.796Z,10.00
2019-03-04T09:31:52.888Z,11.30
2019-03-04T09:34:27.197Z,10.67
2019-03-04T09:36:55.986Z,10.87
2019-03-04T09:39:32.299Z,9.50
2019-03-04T09:42:13.984Z,8.63
2019-03-04T09:44:46.144Z,8.97
2019-03-04T09:47:16.839Z,10.17
2019-03-04T09:49:47.062Z,8.83
2019-03-04T09:52:15.886Z,8.80
2019-03-04T09:54:45.701Z,8.77
2019-03-04T09:57:16.830Z,7.47
2019-03-04T09:59:47.034Z,7.67
2019-03-04T10:02:29.867Z,8.47
2019-03-04T10:05:13.386Z,9.00
2019-03-04T10:08:01.169Z,7.23
2019-03-04T10:11:14.793Z,6.90
2019-03-04T10:14:33.664Z,7.27
2019-03-04T10:17:37.399Z,6.97
2019-03-04T10:20:36.173Z,7.30
2019-03-04T10:23:22.204Z,6.27
2019-03-04T10:26:07.647Z,7.03
2019-03-04T10:29:42.035Z,6.97
2019-03-04T10:32:35.255Z,6.63
2019-03-04T10:35:47.199Z,12.50
2019-03-04T10:38:54.900Z,5.70
2019-03-04T10:42:08.501Z,4.43
2019-03-04T10:45:18.483Z,6.07
2019-03-04T10:47:48.508Z,5.17
2019-03-04T10:50:24.976Z,5.27
2019-03-04T10:52:54.583Z,5.40
2019-03-04T10:55:23.938Z,7.13
2019-03-04T10:57:52.843Z,5.47
2019-03-04T11:00:21.858Z,7.67
2019-03-04T11:02:52.418Z,5.40
2019-03-04T11:05:21.335Z,6.47
2019-03-04T11:07:53.633Z,6.97
2019-03-04T11:10:25.777Z,10.70
2019-03-04T11:12:54.961Z,6.97
2019-03-04T11:15:25.382Z,5.63
2019-03-04T11:17:54.972Z,4.47
2019-03-04T11:20:50.204Z,6.33
2019-03-04T11:23:15.151Z,9.90
2019-03-04T11:25:45.374Z,6.10
2019-03-04T11:28:26.880Z,6.03
2019-03-04T11:30:56.162Z,5.60
2019-03-04T11:33:27.238Z,7.90
2019-03-04T11:36:02.708Z,5.10
2019-03-04T11:38:34.046Z,6.53
2019-03-04T11:41:11.231Z,8.17
2019-03-04T11:43:47.554Z,12.97
2019-03-04T11:46:18.186Z,8.03
2019-03-04T11:48:52.182Z,4.70
2019-03-04T11:51:22.062Z,3.97
2019-03-04T11:53:51.551Z,6.97
2019-03-04T11:56:20.833Z,5.90
2019-03-04T11:58:49.934Z,7.53
2019-03-04T12:01:36.739Z,6.83
2019-03-04T12:04:06.305Z,6.73
2019-03-04T12:06:44.829Z,7.83
2019-03-04T12:09:19.365Z,9.40
2019-03-04T12:11:49.558Z,13.63
2019-03-04T12:14:18.344Z,6.80
2019-03-04T12:16:50.124Z,9.43
2019-03-04T12:19:19.518Z,11.17
2019-03-04T12:21:48.884Z,8.37
2019-03-04T12:24:21.620Z,14.53
2019-03-04T12:26:52.543Z,9.80
2019-03-04T12:29:21.451Z,12.67
2019-03-04T12:32:09.348Z,12.60
2019-03-04T12:34:38.239Z,13.17
2019-03-04T12:37:08.056Z,11.27
2019-03-04T12:39:40.921Z,14.43
2019-03-04T12:42:09.829Z,11.70
2019-03-04T12:44:45.199Z,7.87
2019-03-04T12:47:16.499Z,11.10
2019-03-04T12:49:49.659Z,9.87
2019-03-04T12:52:23.352Z,14.73
2019-03-04T12:54:59.674Z,7.20
2019-03-04T12:57:31.838Z,13.40
2019-03-04T13:00:07.464Z,6.37
2019-03-04T13:02:42.471Z,11.30
2019-03-04T13:05:12.104Z,20.50
2019-03-04T13:07:41.640Z,14.17
2019-03-04T13:10:12.317Z,12.67
2019-03-04T13:12:45.604Z,10.80
2019-03-04T13:15:20.791Z,12.87
2019-03-04T13:17:50.085Z,20.10
2019-03-04T13:20:19.684Z,17.43
2019-03-04T13:22:49.356Z,9.40
2019-03-04T13:25:21.495Z,14.47
2019-03-04T13:27:54.382Z,10.87
2019-03-04T13:30:23.460Z,12.83
2019-03-04T13:32:52.817Z,16.77
2019-03-04T13:35:26.061Z,17.23
2019-03-04T13:37:56.760Z,26.13
2019-03-04T13:40:26.350Z,35.97
2019-03-04T13:42:58.065Z,39.63
2019-03-04T13:45:31.135Z,36.67
2019-03-04T13:48:00.183Z,39.00
2019-03-04T13:50:30.007Z,43.80
2019-03-04T13:52:58.894Z,32.03
2019-03-04T13:55:28.971Z,22.70
2019-03-04T13:58:01.887Z,27.00
2019-03-04T14:00:32.759Z,24.83
2019-03-04T14:03:01.992Z,22.57
2019-03-04T14:05:42.513Z,18.43
2019-03-04T14:08:03.128Z,22.20
2019-03-04T14:10:36.305Z,22.50
2019-03-04T14:13:05.579Z,17.93
2019-03-04T14:15:36.746Z,15.83
2019-03-04T14:18:06.482Z,13.93
2019-03-04T14:20:36.572Z,20.90
2019-03-04T14:23:05.903Z,13.63
2019-03-04T14:25:37.168Z,17.83
2019-03-04T14:28:13.827Z,16.83
2019-03-04T14:30:43.700Z,20.00
2019-03-04T14:33:19.495Z,12.57
2019-03-04T14:35:48.645Z,15.23
2019-03-04T14:38:18.388Z,12.83
2019-03-04T14:40:47.992Z,12.67
2019-03-04T14:43:17.256Z,16.23
2019-03-04T14:45:54.372Z,20.43
2019-03-04T14:48:23.955Z,18.33
2019-03-04T14:50:53.453Z,23.67
2019-03-04T14:53:23.483Z,30.23
2019-03-04T14:55:53.687Z,24.20
2019-03-04T14:58:35.605Z,24.23
2019-03-04T15:01:09.124Z,18.97
2019-03-04T15:03:36.154Z,19.47
2019-03-04T15:06:08.911Z,28.73
2019-03-04T15:08:42.990Z,24.83
2019-03-04T15:11:14.143Z,21.33
2019-03-04T15:13:46.168Z,19.27
2019-03-04T15:16:21.436Z,25.87
2019-03-04T15:18:54.411Z,21.47
2019-03-04T15:21:23.375Z,26.23
2019-03-04T15:23:52.357Z,31.13
2019-03-04T15:26:23.801Z,25.83
2019-03-04T15:28:52.624Z,25.97
2019-03-04T15:31:21.612Z,29.20
2019-03-04T15:33:54.049Z,23.20
2019-03-04T15:36:23.258Z,24.77
2019-03-04T15:38:55.146Z,29.73
